createdAt,value
2022-09-25T00:01:38.969Z,100.00
2022-09-25T00:06:41.498Z,100.00
2022-09-25T00:11:43.154Z,100.00
2022-09-25T00:16:44.863Z,100.00
2022-09-25T00:21:48.714Z,100.00
2022-09-25T00:26:50.413Z,100.00
2022-09-25T00:31:52.340Z,100.00
2022-09-25T00:36:53.964Z,100.00
2022-09-25T00:41:55.600Z,100.00
2022-09-25T00:46:57.435Z,100.00
2022-09-25T00:52:06.303Z,100.00
2022-09-25T00:57:10.038Z,100.00
2022-09-25T01:02:14.627Z,100.00
2022-09-25T01:07:16.770Z,100.00
2022-09-25T01:12:18.444Z,100.00
2022-09-25T01:17:28.287Z,100.00
2022-09-25T01:23:04.530Z,100.00
2022-09-25T01:28:36.930Z,100.00
2022-09-25T01:33:43.864Z,100.00
2022-09-25T01:38:47.427Z,100.00
2022-09-25T01:44:03.996Z,100.00
2022-09-25T01:49:08.225Z,100.00
2022-09-25T01:54:11.939Z,100.00
2022-09-25T01:59:35.610Z,100.00
2022-09-25T02:04:38.745Z,100.00
2022-09-25T02:09:54.869Z,100.00
2022-09-25T02:15:02.069Z,100.00
2022-09-25T02:20:22.867Z,100.00
2022-09-25T02:25:40.031Z,100.00
2022-09-25T02:30:41.779Z,100.00
2022-09-25T02:35:43.454Z,100.00
2022-09-25T02:41:02.254Z,100.00
2022-09-25T02:46:13.595Z,100.00
2022-09-25T02:51:40.859Z,100.00
2022-09-25T02:56:49.083Z,100.00
2022-09-25T03:01:50.816Z,100.00
2022-09-25T03:06:52.588Z,100.00
2022-09-25T03:11:55.070Z,100.00
2022-09-25T03:16:57.540Z,100.00
2022-09-25T03:21:59.234Z,100.00
2022-09-25T03:27:00.862Z,100.00
2022-09-25T03:32:02.890Z,100.00
2022-09-25T03:37:05.040Z,100.00
2022-09-25T03:42:06.675Z,100.00
2022-09-25T03:47:08.279Z,100.00
2022-09-25T03:52:14.511Z,100.00
2022-09-25T03:57:16.146Z,100.00
2022-09-25T04:02:17.821Z,100.00
2022-09-25T04:07:19.467Z,100.00
2022-09-25T04:12:21.274Z,100.00
2022-09-25T04:17:22.886Z,100.00
2022-09-25T04:22:24.680Z,100.00
2022-09-25T04:27:27.816Z,100.00
2022-09-25T04:32:48.050Z,100.00
2022-09-25T04:37:49.719Z,100.00
2022-09-25T04:42:58.043Z,100.00
2022-09-25T04:48:00.048Z,100.00
2022-09-25T04:53:01.714Z,100.00
2022-09-25T04:58:03.337Z,100.00
2022-09-25T05:03:05.123Z,100.00
2022-09-25T05:08:07.375Z,100.00
2022-09-25T05:13:11.121Z,100.00
2022-09-25T05:18:17.504Z,100.00
2022-09-25T05:23:19.195Z,100.00
2022-09-25T05:28:20.826Z,100.00
2022-09-25T05:33:22.500Z,100.00
2022-09-25T05:38:24.127Z,100.00
2022-09-25T05:43:26.010Z,100.00
2022-09-25T05:48:27.664Z,100.00
2022-09-25T05:53:30.531Z,100.00
2022-09-25T05:58:33.669Z,100.00
2022-09-25T06:03:36.054Z,100.00
2022-09-25T06:08:37.681Z,100.00
2022-09-25T06:13:39.312Z,100.00
2022-09-25T06:18:40.933Z,100.00
2022-09-25T06:23:44.844Z,100.00
2022-09-25T06:28:46.567Z,100.00
2022-09-25T06:33:50.734Z,100.00
2022-09-25T06:38:55.722Z,100.00
2022-09-25T06:43:57.345Z,100.00
2022-09-25T06:48:58.995Z,100.00
2022-09-25T06:54:00.689Z,100.00
2022-09-25T06:59:02.363Z,100.00
2022-09-25T07:04:04.440Z,100.00
2022-09-25T07:09:06.206Z,100.00
2022-09-25T07:14:09.460Z,100.00
2022-09-25T07:19:11.097Z,100.00
2022-09-25T07:24:12.866Z,100.00
2022-09-25T07:29:14.523Z,100.00
2022-09-25T07:34:16.350Z,100.00
2022-09-25T07:39:18.803Z,100.00
2022-09-25T07:44:29.507Z,100.00
2022-09-25T07:49:34.896Z,100.00
2022-09-25T07:54:37.660Z,100.00
2022-09-25T07:59:39.288Z,100.00
2022-09-25T08:04:40.998Z,100.00
2022-09-25T08:09:42.708Z,100.00
2022-09-25T08:14:44.331Z,100.00
2022-09-25T08:19:46.221Z,100.00
2022-09-25T08:24:49.223Z,100.00
2022-09-25T08:29:50.914Z,100.00
2022-09-25T08:34:52.872Z,100.00
2022-09-25T08:39:54.532Z,100.00
2022-09-25T08:45:21.449Z,100.00
2022-09-25T08:50:24.548Z,100.00
2022-09-25T08:55:49.005Z,100.00
2022-09-25T09:00:54.509Z,100.00
2022-09-25T09:05:59.286Z,100.00
2022-09-25T09:11:18.731Z,100.00
2022-09-25T09:16:26.967Z,100.00
2022-09-25T09:21:38.996Z,100.00
2022-09-25T09:26:52.665Z,100.00
2022-09-25T09:32:16.627Z,100.00
2022-09-25T09:37:22.894Z,100.00
2022-09-25T09:42:44.391Z,100.00
2022-09-25T09:48:04.038Z,100.00
2022-09-25T09:53:40.276Z,100.00
2022-09-25T09:58:50.508Z,100.00
2022-09-25T10:04:10.683Z,100.00
2022-09-25T10:09:14.665Z,100.00
2022-09-25T10:14:21.752Z,100.00
2022-09-25T10:19:24.930Z,100.00
2022-09-25T10:24:51.247Z,100.00
2022-09-25T10:30:22.357Z,100.00
2022-09-25T10:35:29.657Z,100.00
2022-09-25T10:40:35.895Z,100.00
2022-09-25T10:45:40.588Z,100.00
2022-09-25T10:50:42.927Z,100.00
2022-09-25T10:55:46.229Z,100.00
2022-09-25T11:00:51.597Z,100.00
2022-09-25T11:06:20.813Z,100.00
2022-09-25T11:11:26.872Z,100.00
2022-09-25T11:17:08.203Z,100.00
2022-09-25T11:22:26.539Z,100.00
2022-09-25T11:27:45.167Z,100.00
2022-09-25T11:32:58.719Z,100.00
2022-09-25T11:38:45.147Z,100.00
2022-09-25T11:44:05.920Z,100.00
2022-09-25T11:49:19.041Z,100.00
2022-09-25T11:54:41.203Z,100.00
2022-09-25T12:00:06.982Z,100.00
2022-09-25T12:05:40.732Z,100.00
2022-09-25T12:10:56.405Z,100.00
2022-09-25T12:16:02.688Z,100.00
2022-09-25T12:21:10.544Z,100.00
2022-09-25T12:26:27.341Z,100.00
2022-09-25T12:31:31.476Z,100.00
2022-09-25T12:37:01.451Z,100.00
2022-09-25T12:42:09.955Z,100.00
2022-09-25T12:47:40.393Z,100.00
2022-09-25T12:53:21.582Z,100.00
2022-09-25T12:58:41.436Z,100.00
2022-09-25T13:04:00.914Z,100.00
2022-09-25T13:09:17.265Z,100.00
2022-09-25T13:14:39.905Z,100.00
2022-09-25T13:19:41.683Z,100.00
2022-09-25T13:24:45.208Z,100.00
2022-09-25T13:29:52.335Z,100.00
2022-09-25T13:35:00.397Z,100.00
2022-09-25T13:40:30.724Z,100.00
2022-09-25T13:45:34.237Z,100.00
2022-09-25T13:50:36.756Z,100.00
2022-09-25T13:55:42.439Z,100.00
2022-09-25T14:00:50.455Z,100.00
2022-09-25T14:05:52.442Z,100.00
2022-09-25T14:10:54.822Z,100.00
2022-09-25T14:15:58.454Z,100.00
2022-09-25T14:21:00.290Z,97.48
2022-09-25T14:26:07.273Z,95.72
2022-09-25T14:31:39.711Z,96.62
2022-09-25T14:37:00.427Z,96.33
2022-09-25T14:42:26.659Z,93.58
2022-09-25T14:47:33.770Z,92.75
2022-09-25T14:52:35.694Z,93.83
2022-09-25T14:57:39.586Z,91.94
2022-09-25T15:02:42.490Z,84.14
2022-09-25T15:07:44.527Z,82.34
2022-09-25T15:12:46.215Z,83.00
2022-09-25T15:17:53.296Z,81.84
2022-09-25T15:22:56.913Z,81.54
2022-09-25T15:27:59.314Z,80.60
2022-09-25T15:33:01.316Z,82.03
2022-09-25T15:38:08.242Z,82.91
2022-09-25T15:43:14.076Z,82.58
2022-09-25T15:48:32.832Z,82.91
2022-09-25T15:53:44.873Z,84.77
2022-09-25T15:59:16.751Z,84.73
2022-09-25T16:04:40.473Z,85.05
2022-09-25T16:09:42.099Z,85.60
2022-09-25T16:14:43.755Z,87.75
2022-09-25T16:19:45.401Z,89.39
2022-09-25T16:24:50.803Z,90.67
2022-09-25T16:29:52.516Z,91.08
2022-09-25T16:35:01.322Z,91.19
2022-09-25T16:40:20.699Z,91.18
2022-09-25T16:45:29.390Z,91.86
2022-09-25T16:50:33.310Z,92.63
2022-09-25T16:55:47.345Z,93.41
2022-09-25T17:00:49.615Z,94.40
2022-09-25T17:05:51.308Z,94.91
2022-09-25T17:10:53.039Z,95.22
2022-09-25T17:15:56.566Z,96.28
2022-09-25T17:20:59.665Z,97.45
2022-09-25T17:26:06.562Z,98.09
2022-09-25T17:31:12.403Z,98.57
2022-09-25T17:36:14.235Z,99.66
2022-09-25T17:41:25.964Z,100.00
2022-09-25T17:46:27.735Z,100.00
2022-09-25T17:51:29.938Z,100.00
2022-09-25T17:56:31.633Z,100.00
2022-09-25T18:01:38.866Z,100.00
2022-09-25T18:06:43.442Z,100.00
2022-09-25T18:11:45.235Z,100.00
2022-09-25T18:16:46.939Z,100.00
2022-09-25T18:22:07.265Z,100.00
2022-09-25T18:27:09.147Z,100.00
2022-09-25T18:32:10.840Z,100.00
2022-09-25T18:37:12.662Z,100.00
2022-09-25T18:42:14.458Z,100.00
2022-09-25T18:47:16.214Z,100.00
2022-09-25T18:52:17.907Z,100.00
2022-09-25T18:57:19.564Z,100.00
2022-09-25T19:02:21.267Z,100.00
2022-09-25T19:07:27.230Z,100.00
2022-09-25T19:12:28.994Z,100.00
2022-09-25T19:17:31.100Z,100.00
2022-09-25T19:22:33.511Z,100.00
2022-09-25T19:27:35.336Z,100.00
2022-09-25T19:32:37.422Z,100.00
2022-09-25T19:37:39.195Z,100.00
2022-09-25T19:42:40.840Z,100.00
2022-09-25T19:47:42.522Z,100.00
2022-09-25T19:52:47.665Z,100.00
2022-09-25T19:57:52.970Z,100.00
2022-09-25T20:02:54.682Z,100.00
2022-09-25T20:07:56.412Z,100.00
2022-09-25T20:12:58.154Z,100.00
2022-09-25T20:17:59.910Z,100.00
2022-09-25T20:23:01.599Z,100.00
2022-09-25T20:28:03.298Z,100.00
2022-09-25T20:33:04.913Z,100.00
2022-09-25T20:38:10.974Z,100.00
2022-09-25T20:43:12.763Z,100.00
2022-09-25T20:48:18.050Z,100.00
2022-09-25T20:53:19.689Z,100.00
2022-09-25T20:58:21.371Z,100.00
2022-09-25T21:03:23.009Z,100.00
2022-09-25T21:08:25.770Z,100.00
2022-09-25T21:13:33.902Z,100.00
2022-09-25T21:18:36.041Z,100.00
2022-09-25T21:23:37.662Z,100.00
2022-09-25T21:28:40.413Z,100.00
2022-09-25T21:33:42.200Z,100.00
2022-09-25T21:38:43.836Z,100.00
2022-09-25T21:43:45.632Z,100.00
2022-09-25T21:48:58.092Z,100.00
2022-09-25T21:54:00.938Z,100.00
2022-09-25T21:59:08.723Z,100.00
2022-09-25T22:04:12.292Z,100.00
2022-09-25T22:09:18.883Z,100.00
2022-09-25T22:14:20.606Z,100.00
2022-09-25T22:19:27.047Z,100.00
2022-09-25T22:24:28.728Z,100.00
2022-09-25T22:29:30.835Z,100.00
2022-09-25T22:34:32.473Z,100.00
2022-09-25T22:39:34.107Z,100.00
2022-09-25T22:44:35.734Z,100.00
2022-09-25T22:49:37.368Z,100.00
2022-09-25T22:54:38.980Z,100.00
2022-09-25T22:59:40.591Z,100.00
2022-09-25T23:04:42.382Z,100.00
2022-09-25T23:09:44.150Z,100.00
2022-09-25T23:14:46.209Z,100.00
2022-09-25T23:19:47.881Z,100.00
2022-09-25T23:24:49.526Z,100.00
2022-09-25T23:29:51.149Z,100.00
2022-09-25T23:34:52.775Z,100.00
2022-09-25T23:39:54.400Z,100.00
2022-09-25T23:44:56.372Z,100.00
2022-09-25T23:50:03.505Z,100.00
2022-09-25T23:55:06.515Z,100.00
